Time;durP1;ratioP1;P1;durP2;ratioP2;P2;SDS_P1;SDS_P2;PMS_P1;PMS_P2;Temp;Humidity;BMP_temperature;BMP_pressure;BME280_temperature;BME280_humidity;BME280_pressure;Samples;Min_cycle;Max_cycle;Signal;HPM_P1;HPM_P2
2021/12/08 00:02:46;;;;;;;4.40;2.40;;;;;;;;;;4991916;28;20640;-73
2021/12/08 00:05:50;;;;;;;2.67;2.30;;;;;;;;;;4995357;28;20593;-73
2021/12/08 00:09:25;;;;;;;6.20;2.60;;;;;;;;;;4995303;28;20884;-73
2021/12/08 00:15:55;;;;;;;3.60;2.10;;;;;;;;;;4995624;28;20592;-73
2021/12/08 00:18:59;;;;;;;4.07;2.47;;;;;;;;;;5006160;28;20637;-73
2021/12/08 00:22:04;;;;;;;4.60;2.37;;;;;;;;;;4996099;28;20617;-73
2021/12/08 00:25:08;;;;;;;3.07;1.80;;;;;;;;;;5008664;28;20590;-73
2021/12/08 00:28:13;;;;;;;3.37;2.03;;;;;;;;;;4995452;28;20542;-74
2021/12/08 00:31:17;;;;;;;4.00;1.87;;;;;;;;;;4994802;28;20624;-73
2021/12/08 00:34:21;;;;;;;2.63;2.00;;;;;;;;;;4995221;28;20632;-73
2021/12/08 00:37:27;;;;;;;3.53;2.10;;;;;;;;;;4983110;28;21071;-73
2021/12/08 00:40:32;;;;;;;2.70;1.93;;;;;;;;;;4985988;28;21193;-73
2021/12/08 00:43:36;;;;;;;4.00;2.03;;;;;;;;;;4994888;28;20546;-73
2021/12/08 00:46:41;;;;;;;3.80;2.30;;;;;;;;;;4981765;28;20593;-73
2021/12/08 00:49:46;;;;;;;3.80;2.20;;;;;;;;;;4994947;28;20545;-73
2021/12/08 00:52:51;;;;;;;2.87;2.10;;;;;;;;;;4994773;28;20628;-73
2021/12/08 00:55:56;;;;;;;1.70;1.60;;;;;;;;;;5006458;28;20588;-73
2021/12/08 00:59:00;;;;;;;4.00;2.07;;;;;;;;;;4998056;28;20644;-73
2021/12/08 01:02:04;;;;;;;5.30;1.83;;;;;;;;;;4994350;28;20621;-73
2021/12/08 01:05:12;;;;;;;5.60;1.70;;;;;;;;;;4999726;28;20597;-73
2021/12/08 01:08:17;;;;;;;5.33;1.73;;;;;;;;;;5014129;28;20537;-73
2021/12/08 01:11:22;;;;;;;2.70;1.80;;;;;;;;;;5013661;28;20632;-73
2021/12/08 01:14:26;;;;;;;2.67;1.40;;;;;;;;;;4985878;28;20625;-73
2021/12/08 01:17:30;;;;;;;1.97;1.60;;;;;;;;;;4994034;28;20600;-73
2021/12/08 01:20:34;;;;;;;2.03;1.37;;;;;;;;;;5001321;28;20624;-72
2021/12/08 01:23:40;;;;;;;4.63;1.73;;;;;;;;;;5001949;28;20545;-73
2021/12/08 01:26:45;;;;;;;3.83;1.90;;;;;;;;;;5012932;28;20593;-73
2021/12/08 01:29:49;;;;;;;1.70;1.53;;;;;;;;;;5013517;28;20549;-73
2021/12/08 01:32:53;;;;;;;1.73;1.60;;;;;;;;;;5013549;28;20978;-73
2021/12/08 01:35:58;;;;;;;2.60;1.63;;;;;;;;;;5002219;28;21196;-73
2021/12/08 01:39:04;;;;;;;3.30;1.93;;;;;;;;;;5004780;28;20592;-73
2021/12/08 01:42:15;;;;;;;3.10;1.90;;;;;;;;;;5001459;28;20612;-73
2021/12/08 01:46:04;;;;;;;2.83;1.87;;;;;;;;;;4995567;28;20951;-73
2021/12/08 01:48:49;;;;;;;4.00;1.90;;;;;;;;;;4999891;28;20550;-73
2021/12/08 01:51:53;;;;;;;2.33;1.77;;;;;;;;;;5010346;28;20651;-72
2021/12/08 01:54:58;;;;;;;3.73;2.03;;;;;;;;;;5010723;28;20596;-73
2021/12/08 01:58:03;;;;;;;3.47;1.63;;;;;;;;;;4981896;28;20612;-73
2021/12/08 02:01:10;;;;;;;3.60;1.70;;;;;;;;;;4993707;28;20664;-73
2021/12/08 02:04:15;;;;;;;2.20;1.60;;;;;;;;;;4993668;28;20578;-73
2021/12/08 02:07:19;;;;;;;2.73;1.63;;;;;;;;;;4994130;28;20530;-73
2021/12/08 02:10:24;;;;;;;4.37;1.73;;;;;;;;;;4993761;28;20589;-73
2021/12/08 02:13:31;;;;;;;3.53;1.83;;;;;;;;;;4993713;28;20545;-73
2021/12/08 02:20:02;;;;;;;2.90;1.60;;;;;;;;;;5290652;23;20736;-87
2021/12/08 02:23:39;;;;;;;2.97;1.70;;;;;;;;;;4884194;29;20602;-87
